Time;durP1;ratioP1;P1;durP2;ratioP2;P2;SDS_P1;SDS_P2;PMS_P1;PMS_P2;Temp;Humidity;BMP_temperature;BMP_pressure;BME280_temperature;BME280_humidity;BME280_pressure;Samples;Min_cycle;Max_cycle;Signal;HPM_P1;HPM_P2
2022/02/28 00:02:28;;;;;;;16.73;6.00;;;;;;;0.04;78.85;103081.78;5055913;28;20033;-82
2022/02/28 00:04:54;;;;;;;8.38;5.32;;;;;;;-0.09;78.73;103079.28;5074539;28;20067;-82
2022/02/28 00:07:20;;;;;;;8.88;5.70;;;;;;;-0.15;79.21;103081.09;5077341;28;20060;-82
2022/02/28 00:09:46;;;;;;;9.00;5.18;;;;;;;-0.21;79.49;103080.28;5075597;28;20032;-83
2022/02/28 00:12:11;;;;;;;10.35;5.35;;;;;;;-0.16;80.46;103082.84;5040732;28;20031;-84
2022/02/28 00:14:37;;;;;;;9.23;5.50;;;;;;;-0.05;80.29;103080.97;5074387;28;20029;-82
2022/02/28 00:17:02;;;;;;;10.52;5.65;;;;;;;-0.04;79.96;103081.88;5056241;28;20438;-82
2022/02/28 00:19:28;;;;;;;11.93;5.93;;;;;;;0.06;79.99;103085.25;5055883;28;20104;-82
2022/02/28 00:21:53;;;;;;;13.52;5.47;;;;;;;-0.04;79.47;103084.47;5073786;28;20032;-82
2022/02/28 00:24:19;;;;;;;10.88;5.57;;;;;;;-0.09;79.87;103086.25;5073713;28;20461;-82
2022/02/28 00:26:44;;;;;;;17.50;6.20;;;;;;;-0.15;79.93;103081.09;5073635;28;20353;-82
2022/02/28 00:29:09;;;;;;;10.85;5.65;;;;;;;-0.22;80.18;103077.69;5056309;28;20341;-82
2022/02/28 00:31:35;;;;;;;10.65;5.63;;;;;;;-0.32;79.83;103084.72;5075219;28;20040;-83
2022/02/28 00:34:00;;;;;;;9.70;5.63;;;;;;;-0.41;80.47;103093.53;5038732;28;20055;-82
2022/02/28 00:36:26;;;;;;;13.00;6.28;;;;;;;-0.48;80.66;103089.22;5055170;28;20028;-82
2022/02/28 00:38:52;;;;;;;11.20;5.75;;;;;;;-0.54;81.06;103087.53;5054914;28;20055;-82
2022/02/28 00:41:17;;;;;;;13.48;6.10;;;;;;;-0.59;81.11;103094.53;5072538;28;20086;-82
2022/02/28 00:43:43;;;;;;;11.35;6.28;;;;;;;-0.67;81.08;103085.00;5054705;28;20029;-82
2022/02/28 00:46:08;;;;;;;12.75;5.95;;;;;;;-0.72;81.57;103093.78;5072742;28;20090;-84
2022/02/28 00:48:34;;;;;;;13.13;5.78;;;;;;;-0.76;81.60;103104.25;5072657;28;20077;-82
2022/02/28 00:50:59;;;;;;;11.98;5.47;;;;;;;-0.80;81.73;103107.78;5054277;28;20124;-83
2022/02/28 00:53:25;;;;;;;14.95;5.95;;;;;;;-0.81;82.19;103106.88;5054037;28;20035;-82
2022/02/28 00:55:50;;;;;;;10.07;5.57;;;;;;;-0.89;82.15;103104.31;5072806;28;20035;-82
2022/02/28 00:58:16;;;;;;;10.35;5.80;;;;;;;-0.99;81.00;103112.25;5072194;28;20159;-83
2022/02/28 01:00:41;;;;;;;17.25;6.72;;;;;;;-1.03;81.26;103113.13;5072392;28;20025;-82
2022/02/28 01:03:07;;;;;;;12.77;6.20;;;;;;;-1.03;82.11;103119.25;5054246;28;20513;-83
2022/02/28 01:05:32;;;;;;;15.65;6.63;;;;;;;-1.10;82.04;103118.38;5072415;28;20063;-82
2022/02/28 01:07:57;;;;;;;11.90;6.38;;;;;;;-1.23;81.92;103111.50;5054665;28;20040;-83
2022/02/28 01:10:23;;;;;;;10.15;6.28;;;;;;;-1.33;81.68;103115.00;5072694;28;20113;-82
2022/02/28 01:12:50;;;;;;;12.27;6.45;;;;;;;-1.40;81.77;103108.06;5072617;28;20472;-83
2022/02/28 01:15:17;;;;;;;9.30;5.90;;;;;;;-1.50;81.56;103102.91;5072540;28;20128;-82
2022/02/28 01:17:42;;;;;;;11.68;5.82;;;;;;;-1.64;81.42;103109.94;5072570;28;20144;-83
2022/02/28 01:20:10;;;;;;;11.30;6.43;;;;;;;-1.79;81.89;103100.41;5072407;28;20079;-84
2022/02/28 01:22:35;;;;;;;8.60;5.80;;;;;;;-1.92;82.04;103109.97;5071983;28;20036;-83
2022/02/28 01:25:02;;;;;;;10.63;5.65;;;;;;;-2.04;82.31;103104.78;5072548;28;20054;-83
2022/02/28 01:27:27;;;;;;;7.28;5.45;;;;;;;-2.16;82.61;103110.88;5054224;28;20037;-83
2022/02/28 01:29:52;;;;;;;10.38;5.68;;;;;;;-2.27;82.31;103108.25;5054157;28;20082;-82
2022/02/28 01:32:18;;;;;;;11.55;5.80;;;;;;;-2.38;83.02;103108.28;5071941;28;20036;-82
2022/02/28 01:34:43;;;;;;;10.50;5.53;;;;;;;-2.45;83.58;103113.50;5054211;28;20120;-83
2022/02/28 01:37:08;;;;;;;10.73;6.20;;;;;;;-2.54;83.82;103104.81;5072150;28;20060;-84
2022/02/28 01:39:34;;;;;;;10.90;6.15;;;;;;;-2.64;84.08;103110.88;5072068;28;20029;-84
2022/02/28 01:42:00;;;;;;;11.15;5.75;;;;;;;-2.74;83.61;103104.78;5071882;28;20040;-83
2022/02/28 01:44:26;;;;;;;11.57;6.03;;;;;;;-2.81;83.57;103105.63;5072032;28;20141;-82
2022/02/28 01:46:51;;;;;;;9.52;5.55;;;;;;;-2.90;83.44;103101.25;5071808;28;20056;-84
2022/02/28 01:49:17;;;;;;;13.00;6.38;;;;;;;-2.97;83.58;103094.31;5071606;28;20475;-83
2022/02/28 01:51:42;;;;;;;10.65;6.35;;;;;;;-3.03;83.66;103096.88;5071207;28;20068;-83
2022/02/28 01:54:08;;;;;;;10.75;5.68;;;;;;;-3.07;83.92;103105.59;5071357;28;20062;-83
2022/02/28 01:56:35;;;;;;;9.57;5.82;;;;;;;-3.14;83.93;103106.44;5071791;28;20033;-83
2022/02/28 01:59:00;;;;;;;13.10;5.68;;;;;;;-3.20;83.95;103107.28;5053570;28;20101;-83
2022/02/28 02:01:27;;;;;;;11.65;6.90;;;;;;;-3.25;84.40;103103.78;5071335;28;20123;-83
2022/02/28 02:03:52;;;;;;;11.00;5.90;;;;;;;-3.29;84.79;103110.72;5071496;28;20119;-83
2022/02/28 02:06:21;;;;;;;10.23;6.28;;;;;;;-3.33;85.97;103111.56;5074073;28;20464;-83
2022/02/28 02:08:47;;;;;;;9.82;5.43;;;;;;;-3.37;86.29;103115.88;5071628;28;20433;-82
2022/02/28 02:11:12;;;;;;;10.57;5.78;;;;;;;-3.40;86.46;103113.28;5053247;28;20043;-83
2022/02/28 02:13:38;;;;;;;11.00;6.50;;;;;;;-3.45;86.26;103112.41;5070734;28;20040;-83
2022/02/28 02:16:04;;;;;;;14.15;6.90;;;;;;;-3.48;85.79;103107.16;5070923;28;20445;-83
2022/02/28 02:18:30;;;;;;;11.30;6.25;;;;;;;-3.49;86.01;103114.94;5053051;28;20036;-83
2022/02/28 02:20:55;;;;;;;11.80;6.75;;;;;;;-3.48;85.89;103112.34;5052809;28;20136;-83
2022/02/28 02:23:22;;;;;;;9.98;6.03;;;;;;;-3.48;86.13;103109.75;5070645;28;20075;-83
2022/02/28 02:25:48;;;;;;;15.98;7.10;;;;;;;-3.47;86.54;103113.25;5071063;28;20029;-83
2022/02/28 02:28:16;;;;;;;11.80;6.22;;;;;;;-3.52;86.61;103109.72;5054169;28;20055;-84
2022/02/28 02:30:55;;;;;;;9.52;6.20;;;;;;;-3.55;86.57;103108.88;5071975;28;20024;-83
2022/02/28 02:33:21;;;;;;;9.73;5.70;;;;;;;-3.60;86.62;103109.69;5071568;28;20108;-83
2022/02/28 02:35:55;;;;;;;11.95;6.43;;;;;;;-3.64;86.66;103107.94;5053580;28;20098;-84
2022/02/28 02:38:22;;;;;;;12.70;6.47;;;;;;;-3.68;86.64;103109.66;5075836;28;20083;-83
2022/02/28 02:40:48;;;;;;;17.50;6.70;;;;;;;-3.72;86.54;103108.78;5073699;28;20088;-83
2022/02/28 02:43:13;;;;;;;11.52;6.80;;;;;;;-3.73;87.63;103104.44;5037400;28;20071;-83
2022/02/28 02:45:39;;;;;;;11.82;6.22;;;;;;;-3.75;88.08;103110.50;5071534;28;20032;-82
2022/02/28 02:48:34;;;;;;;11.95;6.82;;;;;;;-3.82;88.05;103101.78;5053174;28;20135;-82
2022/02/28 02:50:59;;;;;;;17.65;6.50;;;;;;;-3.85;88.20;103098.28;5049428;28;20048;-83
2022/02/28 02:53:25;;;;;;;13.82;6.68;;;;;;;-3.90;88.53;103093.94;5052842;28;20085;-82
2022/02/28 02:55:50;;;;;;;15.48;7.03;;;;;;;-3.92;88.62;103089.59;5070570;28;20036;-83
2022/02/28 02:58:16;;;;;;;10.23;6.72;;;;;;;-3.95;88.64;103095.63;5071423;28;20399;-82
2022/02/28 03:00:44;;;;;;;12.48;7.38;;;;;;;-3.99;88.59;103088.66;5071344;28;20183;-82
2022/02/28 03:03:10;;;;;;;15.65;7.70;;;;;;;-4.03;88.70;103086.94;5070744;28;20086;-83
2022/02/28 03:05:36;;;;;;;12.88;6.68;;;;;;;-4.05;89.12;103087.78;5053355;28;20442;-81
2022/02/28 03:08:02;;;;;;;11.05;6.15;;;;;;;-4.10;88.64;103083.41;5070939;28;20024;-83
2022/02/28 03:10:27;;;;;;;12.90;6.53;;;;;;;-4.13;88.82;103079.94;5070508;28;20028;-83
2022/02/28 03:12:53;;;;;;;14.40;6.72;;;;;;;-4.16;88.62;103085.09;5070939;28;20120;-83
2022/02/28 03:15:18;;;;;;;10.60;5.88;;;;;;;-4.19;88.58;103080.75;5052336;28;20429;-84
2022/02/28 03:17:44;;;;;;;11.40;7.10;;;;;;;-4.22;88.80;103083.31;5070397;28;20128;-83
2022/02/28 03:20:10;;;;;;;10.20;6.78;;;;;;;-4.25;87.96;103072.91;5072049;28;20063;-84
2022/02/28 03:22:35;;;;;;;15.65;6.78;;;;;;;-4.27;87.63;103072.00;5071205;28;20047;-83
2022/02/28 03:25:01;;;;;;;11.65;6.38;;;;;;;-4.30;87.62;103067.69;5072218;28;20116;-83
2022/02/28 03:27:26;;;;;;;12.38;6.68;;;;;;;-4.30;87.28;103079.78;5073567;28;20060;-84
2022/02/28 03:29:52;;;;;;;16.33;6.85;;;;;;;-4.33;87.53;103070.25;5058500;28;20116;-83
2022/02/28 03:32:18;;;;;;;12.75;6.43;;;;;;;-4.35;88.07;103071.09;5039259;28;20036;-84
2022/02/28 03:34:43;;;;;;;12.30;6.28;;;;;;;-4.36;87.63;103074.53;5073697;28;20040;-84
2022/02/28 03:37:09;;;;;;;11.60;6.25;;;;;;;-4.39;87.52;103075.38;5072741;28;20100;-83
2022/02/28 03:39:34;;;;;;;11.38;7.03;;;;;;;-4.41;88.11;103076.25;5073061;28;20063;-83
2022/02/28 03:41:59;;;;;;;10.80;6.88;;;;;;;-4.46;87.83;103069.28;5036655;28;20138;-84
2022/02/28 03:44:25;;;;;;;12.15;6.63;;;;;;;-4.50;88.01;103067.50;5041413;28;20104;-83
2022/02/28 03:46:51;;;;;;;12.43;6.70;;;;;;;-4.52;87.48;103061.44;5040414;28;20039;-83
2022/02/28 03:49:18;;;;;;;10.15;6.60;;;;;;;-4.52;88.49;103073.53;5072126;28;20032;-83
2022/02/28 03:51:44;;;;;;;14.63;7.40;;;;;;;-4.55;89.03;103069.22;5071370;28;20068;-82
2022/02/28 03:54:11;;;;;;;12.15;7.07;;;;;;;-4.58;89.18;103069.19;5071075;28;20067;-83
2022/02/28 03:56:40;;;;;;;14.35;7.72;;;;;;;-4.62;89.07;103062.22;5072114;28;20036;-82
2022/02/28 03:59:07;;;;;;;12.02;7.45;;;;;;;-4.64;89.13;103064.81;5072282;28;20036;-82
2022/02/28 04:01:33;;;;;;;12.70;7.65;;;;;;;-4.68;88.73;103065.63;5073063;28;20103;-83
2022/02/28 04:03:59;;;;;;;15.80;7.38;;;;;;;-4.69;89.08;103063.03;5037222;28;20127;-82
2022/02/28 04:06:24;;;;;;;11.93;7.18;;;;;;;-4.72;89.15;103053.47;5052522;28;20384;-83
2022/02/28 04:08:49;;;;;;;15.52;8.02;;;;;;;-4.73;89.21;103056.06;5071415;28;20452;-82
2022/02/28 04:11:15;;;;;;;10.85;6.68;;;;;;;-4.74;89.88;103050.00;5037688;28;20029;-84
2022/02/28 04:13:40;;;;;;;13.75;7.38;;;;;;;-4.71;89.75;103050.03;5037442;28;20028;-84
2022/02/28 04:16:06;;;;;;;13.18;7.75;;;;;;;-4.65;89.66;103047.47;5073276;28;20056;-83
2022/02/28 04:18:31;;;;;;;16.77;7.63;;;;;;;-4.59;90.19;103043.19;5058488;28;20074;-84
2022/02/28 04:20:57;;;;;;;16.73;7.88;;;;;;;-4.55;90.72;103042.34;5060185;28;20052;-84
2022/02/28 04:23:23;;;;;;;18.25;8.45;;;;;;;-4.50;90.79;103035.47;5056074;28;20504;-83
2022/02/28 04:25:48;;;;;;;13.65;7.65;;;;;;;-4.45;91.56;103044.16;5073972;28;20052;-83
2022/02/28 04:28:13;;;;;;;18.77;8.13;;;;;;;-4.43;90.89;103039.84;5077918;28;20071;-83
2022/02/28 04:30:39;;;;;;;15.90;8.27;;;;;;;-4.41;91.29;103045.06;5059690;28;20111;-83
2022/02/28 04:33:04;;;;;;;14.30;8.20;;;;;;;-4.43;91.42;103050.25;5042143;28;20036;-83
2022/02/28 04:35:30;;;;;;;14.02;7.35;;;;;;;-4.46;91.41;103051.09;5044794;28;20021;-83
2022/02/28 04:37:55;;;;;;;12.75;7.57;;;;;;;-4.46;90.65;103048.50;5062521;28;20036;-83
2022/02/28 04:40:20;;;;;;;12.68;7.32;;;;;;;-4.45;90.75;103046.75;5046562;28;20077;-83
2022/02/28 04:42:46;;;;;;;16.00;8.13;;;;;;;-4.46;90.63;103051.09;5077280;28;20040;-82
2022/02/28 04:45:11;;;;;;;12.60;7.50;;;;;;;-4.49;90.70;103050.22;5075209;28;20051;-81
2022/02/28 04:47:36;;;;;;;18.73;7.97;;;;;;;-4.50;90.47;103045.88;5059081;28;20476;-83
2022/02/28 04:50:03;;;;;;;13.45;7.95;;;;;;;-4.51;91.02;103050.19;5062856;28;20112;-83
2022/02/28 04:52:28;;;;;;;17.27;8.88;;;;;;;-4.49;91.16;103050.22;5062949;28;20221;-82
2022/02/28 04:54:53;;;;;;;17.55;7.97;;;;;;;-4.49;91.13;103045.88;5047236;28;20024;-82
2022/02/28 04:57:19;;;;;;;17.10;8.23;;;;;;;-4.46;91.38;103045.91;5082725;28;20037;-81
2022/02/28 04:59:46;;;;;;;12.45;7.45;;;;;;;-4.42;91.87;103041.56;5084433;28;20043;-81
2022/02/28 05:02:11;;;;;;;15.38;8.70;;;;;;;-4.43;92.11;103043.31;5045270;28;20025;-79
2022/02/28 05:04:37;;;;;;;15.27;7.78;;;;;;;-4.45;92.24;103045.03;5080225;28;20029;-84
2022/02/28 05:07:02;;;;;;;14.15;8.40;;;;;;;-4.47;92.00;103041.53;5078979;28;20036;-84
2022/02/28 05:09:28;;;;;;;15.18;7.57;;;;;;;-4.47;91.66;103049.34;5061545;28;20132;-82
2022/02/28 05:11:53;;;;;;;14.73;7.85;;;;;;;-4.46;91.84;103047.63;5079739;28;20390;-82
2022/02/28 05:14:18;;;;;;;17.92;8.10;;;;;;;-4.46;91.34;103048.50;5060639;28;20081;-83
2022/02/28 05:16:44;;;;;;;13.25;7.47;;;;;;;-4.46;91.54;103048.50;5077534;28;20036;-83
2022/02/28 05:19:10;;;;;;;15.77;7.63;;;;;;;-4.47;90.83;103044.13;5077354;28;20033;-83
2022/02/28 05:21:35;;;;;;;15.15;8.13;;;;;;;-4.36;91.66;103051.16;5083535;28;20055;-83
2022/02/28 05:24:02;;;;;;;18.35;7.47;;;;;;;-4.35;92.15;103052.91;5084609;28;20051;-82
2022/02/28 05:26:27;;;;;;;15.05;8.30;;;;;;;-4.29;91.64;103063.34;5077118;28;20084;-83
2022/02/28 05:28:52;;;;;;;15.10;7.65;;;;;;;-4.24;91.47;103066.81;5081039;28;20115;-83
2022/02/28 05:31:18;;;;;;;13.02;7.47;;;;;;;-4.23;91.23;103063.38;5081957;28;20492;-83
2022/02/28 05:33:43;;;;;;;12.20;7.43;;;;;;;-4.26;91.42;103058.16;5075210;28;20040;-83
2022/02/28 05:36:09;;;;;;;15.05;8.23;;;;;;;-4.27;91.35;103065.09;5055137;28;20029;-83
2022/02/28 05:38:34;;;;;;;16.05;8.55;;;;;;;-4.28;91.52;103060.75;5072200;28;20033;-83
2022/02/28 05:41:00;;;;;;;14.52;7.55;;;;;;;-4.30;91.06;103062.47;5054228;28;20036;-82
2022/02/28 05:43:26;;;;;;;14.07;7.72;;;;;;;-4.33;91.61;103070.25;5072425;28;20483;-82
2022/02/28 05:45:51;;;;;;;11.90;7.05;;;;;;;-4.35;91.43;103068.50;5072123;28;20490;-83
2022/02/28 05:48:16;;;;;;;16.17;7.75;;;;;;;-4.35;91.25;103076.28;5075917;28;20069;-82
2022/02/28 05:50:42;;;;;;;13.18;8.50;;;;;;;-4.35;91.09;103079.75;5056905;28;20036;-82
2022/02/28 05:53:07;;;;;;;15.60;8.30;;;;;;;-4.35;90.73;103079.75;5057532;28;20132;-82
2022/02/28 05:55:34;;;;;;;13.85;7.95;;;;;;;-4.36;91.18;103085.84;5078557;28;20052;-83
2022/02/28 05:57:59;;;;;;;15.00;7.85;;;;;;;-4.39;91.34;103075.38;5080969;28;20048;-82
2022/02/28 06:00:25;;;;;;;11.82;7.70;;;;;;;-4.45;90.97;103081.44;5085467;28;20073;-83
2022/02/28 06:02:51;;;;;;;13.68;8.07;;;;;;;-4.49;91.17;103087.44;5063279;28;20044;-82
2022/02/28 06:05:17;;;;;;;12.95;7.88;;;;;;;-4.53;91.39;103090.88;5081574;28;20035;-83
2022/02/28 06:07:42;;;;;;;14.98;8.45;;;;;;;-4.59;91.01;103085.63;5062612;28;20445;-83
2022/02/28 06:10:08;;;;;;;16.00;7.47;;;;;;;-4.62;91.53;103089.06;5077573;28;20036;-82
2022/02/28 06:12:33;;;;;;;14.88;8.60;;;;;;;-4.67;91.28;103087.28;5077269;28;20040;-83
2022/02/28 06:14:59;;;;;;;15.80;7.85;;;;;;;-4.72;91.16;103084.63;5054856;28;20036;-80
2022/02/28 06:17:24;;;;;;;13.57;7.53;;;;;;;-4.76;91.19;103085.50;5071485;28;20037;-80
2022/02/28 06:19:50;;;;;;;10.95;7.47;;;;;;;-4.78;90.86;103092.38;5071123;28;20083;-82
2022/02/28 06:22:16;;;;;;;17.42;8.77;;;;;;;-4.81;90.64;103092.34;5071380;28;20024;-81
2022/02/28 06:24:42;;;;;;;17.05;8.10;;;;;;;-4.81;91.04;103100.13;5071296;28;20032;-81
2022/02/28 06:27:07;;;;;;;14.20;7.78;;;;;;;-4.83;90.93;103096.66;5070880;28;20032;-80
2022/02/28 06:29:33;;;;;;;11.95;7.90;;;;;;;-4.86;91.22;103099.25;5071737;28;20345;-81
2022/02/28 06:31:58;;;;;;;11.93;7.53;;;;;;;-4.90;90.80;103100.91;5071218;28;20105;-80
2022/02/28 06:34:23;;;;;;;17.27;8.70;;;;;;;-4.89;90.81;103101.81;5054102;28;20071;-81
2022/02/28 06:36:49;;;;;;;18.00;9.00;;;;;;;-4.89;91.37;103099.22;5071197;28;20029;-81
2022/02/28 06:39:14;;;;;;;17.02;9.02;;;;;;;-4.90;91.65;103090.53;5070801;28;20033;-81
2022/02/28 06:41:40;;;;;;;17.17;8.77;;;;;;;-4.91;91.10;103094.00;5071552;28;20032;-82
2022/02/28 06:44:06;;;;;;;12.73;7.82;;;;;;;-4.89;91.39;103102.66;5071442;28;20021;-80
2022/02/28 06:46:31;;;;;;;14.73;8.23;;;;;;;-4.86;90.87;103104.44;5072781;28;20057;-79
2022/02/28 06:48:57;;;;;;;15.63;8.02;;;;;;;-4.85;91.55;103104.44;5071541;28;20088;-79
2022/02/28 06:51:22;;;;;;;14.27;7.90;;;;;;;-4.84;91.17;103106.16;5057923;28;20457;-79
2022/02/28 06:53:48;;;;;;;18.02;8.63;;;;;;;-4.82;91.79;103103.59;5075684;28;20469;-80
2022/02/28 06:56:13;;;;;;;25.95;12.50;;;;;;;-4.79;91.57;103112.28;5054736;28;20465;-79
2022/02/28 06:58:38;;;;;;;28.70;13.10;;;;;;;-4.76;91.44;103114.06;5072474;28;20059;-82
2022/02/28 07:01:06;;;;;;;20.40;10.40;;;;;;;-4.72;91.50;103118.41;5053778;28;20075;-78
2022/02/28 07:03:32;;;;;;;15.02;9.45;;;;;;;-4.66;91.56;103115.00;5071960;28;20033;-79
2022/02/28 07:05:58;;;;;;;16.85;8.70;;;;;;;-4.62;91.98;103116.78;5053915;28;20048;-79
2022/02/28 07:08:24;;;;;;;16.58;8.88;;;;;;;-4.54;92.25;103124.66;5053625;28;20123;-79
2022/02/28 07:10:51;;;;;;;13.00;7.38;;;;;;;-4.47;92.04;103122.09;5071504;28;20029;-77
2022/02/28 07:13:16;;;;;;;18.25;9.30;;;;;;;-4.38;92.40;103129.13;5071660;28;20088;-81
2022/02/28 07:15:44;;;;;;;17.10;9.73;;;;;;;-4.28;92.86;103130.94;5071557;28;20117;-79
2022/02/28 07:18:11;;;;;;;19.48;10.25;;;;;;;-4.17;92.96;103130.16;5071233;28;20106;-82
2022/02/28 07:20:36;;;;;;;25.88;11.85;;;;;;;-4.10;93.10;103139.75;5070872;28;20118;-80
2022/02/28 07:23:03;;;;;;;19.35;9.45;;;;;;;-4.01;93.70;103149.34;5070938;28;20108;-79
2022/02/28 07:25:29;;;;;;;16.25;8.73;;;;;;;-3.93;93.60;103148.53;5070771;28;20032;-79
2022/02/28 07:27:55;;;;;;;16.00;8.52;;;;;;;-3.82;93.31;103151.22;5070647;28;20117;-77
2022/02/28 07:30:22;;;;;;;16.20;8.18;;;;;;;-3.70;93.74;103153.03;5071109;28;20444;-78
2022/02/28 07:32:48;;;;;;;12.85;8.02;;;;;;;-3.57;93.74;103156.56;5071046;28;20090;-78
2022/02/28 07:35:14;;;;;;;15.98;8.00;;;;;;;-3.42;93.71;103154.06;5052769;28;20508;-76
2022/02/28 07:37:40;;;;;;;13.93;8.65;;;;;;;-3.23;94.01;103159.34;5052523;28;20028;-78
2022/02/28 07:40:09;;;;;;;13.35;8.32;;;;;;;-3.01;94.08;103152.50;5070595;28;20037;-76
2022/02/28 07:42:35;;;;;;;23.70;9.32;;;;;;;-2.78;94.62;103154.28;5070947;28;20063;-78
2022/02/28 07:45:02;;;;;;;14.30;8.95;;;;;;;-2.55;94.72;103151.75;5070418;28;20033;-76
2022/02/28 07:47:28;;;;;;;13.60;9.07;;;;;;;-2.25;95.23;103150.88;5052602;28;20447;-75
2022/02/28 07:49:56;;;;;;;12.35;8.20;;;;;;;-2.03;94.69;103143.03;5035990;28;20040;-82
2022/02/28 07:52:21;;;;;;;17.98;8.90;;;;;;;-1.79;94.37;103153.47;5055814;28;20036;-76
2022/02/28 07:54:46;;;;;;;18.15;8.23;;;;;;;-1.49;92.69;103149.03;5056497;28;20033;-79
2022/02/28 07:57:12;;;;;;;18.60;8.48;;;;;;;-1.33;90.97;103149.84;5055952;28;20033;-79
2022/02/28 07:59:37;;;;;;;22.80;8.63;;;;;;;-1.10;90.63;103154.13;5074267;28;20108;-81
2022/02/28 08:02:03;;;;;;;12.77;7.80;;;;;;;-0.90;90.20;103154.91;5056165;28;20051;-79
2022/02/28 08:04:28;;;;;;;16.13;7.72;;;;;;;-0.71;89.51;103150.41;5074592;28;20033;-81
2022/02/28 08:06:54;;;;;;;13.38;8.00;;;;;;;-0.51;87.29;103154.63;5074460;28;20337;-79
2022/02/28 08:09:21;;;;;;;20.70;7.50;;;;;;;-0.30;86.86;103153.63;5056116;28;20353;-81
2022/02/28 08:11:47;;;;;;;11.50;7.20;;;;;;;-0.07;85.35;103160.41;5074109;28;20033;-80
2022/02/28 08:14:12;;;;;;;12.07;7.15;;;;;;;0.16;83.05;103157.56;5074055;28;20036;-82
2022/02/28 08:16:38;;;;;;;13.65;7.60;;;;;;;0.33;82.06;103158.28;5055939;28;20085;-85
2022/02/28 08:19:03;;;;;;;13.32;7.43;;;;;;;0.58;83.31;103160.59;5039577;28;20098;-84
2022/02/28 08:21:28;;;;;;;11.95;7.30;;;;;;;0.77;80.65;103163.88;5074511;28;20060;-85
2022/02/28 08:23:54;;;;;;;10.82;7.38;;;;;;;0.99;83.33;103166.25;5074844;28;20032;-84
2022/02/28 08:26:19;;;;;;;25.75;7.50;;;;;;;1.14;77.15;103158.19;5075573;28;20033;-83
2022/02/28 08:28:45;;;;;;;13.10;7.45;;;;;;;1.29;75.97;103157.09;5076339;28;20067;-81
2022/02/28 08:31:10;;;;;;;18.67;7.05;;;;;;;1.50;80.32;103152.41;5075978;28;20417;-84
2022/02/28 08:33:35;;;;;;;11.52;7.22;;;;;;;1.65;77.09;103152.16;5074342;28;20039;-78
2022/02/28 08:36:01;;;;;;;9.82;6.57;;;;;;;1.80;72.93;103140.56;5074801;28;20025;-83
2022/02/28 08:38:26;;;;;;;14.43;7.32;;;;;;;1.98;70.81;103139.38;5055669;28;20392;-80
2022/02/28 08:40:52;;;;;;;11.50;6.50;;;;;;;2.19;67.79;103145.13;5055144;28;20473;-83
2022/02/28 08:43:17;;;;;;;12.73;6.65;;;;;;;2.49;68.35;103143.66;5073626;28;20064;-79
2022/02/28 08:45:43;;;;;;;10.90;6.75;;;;;;;2.72;67.69;103137.97;5055782;28;20067;-81
2022/02/28 08:48:08;;;;;;;12.98;6.60;;;;;;;2.81;66.59;103137.75;5074143;28;20055;-78
2022/02/28 08:50:34;;;;;;;12.55;6.55;;;;;;;2.94;65.13;103140.13;5073937;28;20105;-84
2022/02/28 08:53:00;;;;;;;12.77;6.68;;;;;;;3.22;64.70;103129.00;5073494;28;20104;-79
2022/02/28 08:55:25;;;;;;;13.88;6.93;;;;;;;3.42;63.30;103125.88;5073848;28;20035;-81
2022/02/28 08:57:51;;;;;;;9.18;6.32;;;;;;;3.97;59.33;103118.38;5073151;28;20387;-78
2022/02/28 09:00:16;;;;;;;9.30;6.38;;;;;;;4.43;57.15;103114.50;5073358;28;20365;-82
2022/02/28 09:02:42;;;;;;;10.88;6.38;;;;;;;4.55;57.18;103108.00;5038478;28;20094;-81
2022/02/28 09:05:09;;;;;;;8.73;6.35;;;;;;;5.07;56.55;103097.66;5072800;28;20035;-78
2022/02/28 09:07:34;;;;;;;12.85;6.38;;;;;;;6.36;52.69;103105.69;5054314;28;20039;-79
2022/02/28 09:10:00;;;;;;;12.80;6.18;;;;;;;7.16;49.37;103102.59;5072876;28;20032;-81
2022/02/28 09:12:26;;;;;;;13.18;6.05;;;;;;;8.18;45.83;103118.69;5073385;28;20037;-78
2022/02/28 09:14:52;;;;;;;10.35;6.38;;;;;;;8.79;43.57;103100.03;5054348;28;20170;-79
2022/02/28 09:17:17;;;;;;;14.02;6.35;;;;;;;9.52;41.48;103099.16;5072749;28;20029;-79
2022/02/28 09:19:42;;;;;;;8.60;5.93;;;;;;;9.68;39.80;103093.94;5053960;28;20119;-80
2022/02/28 09:22:08;;;;;;;9.15;6.38;;;;;;;10.79;38.91;103090.72;5072475;28;20373;-80
2022/02/28 09:24:34;;;;;;;10.00;6.32;;;;;;;11.27;37.68;103085.38;5054265;28;20440;-80
2022/02/28 09:27:00;;;;;;;10.93;6.25;;;;;;;10.87;37.59;103096.50;5072499;28;20025;-80
2022/02/28 09:29:26;;;;;;;12.18;6.28;;;;;;;11.35;36.91;103087.63;5072315;28;20054;-81
2022/02/28 09:31:52;;;;;;;12.38;6.22;;;;;;;12.21;35.91;103089.63;5072400;28;20036;-79
2022/02/28 09:34:17;;;;;;;9.82;5.93;;;;;;;12.13;35.21;103093.63;5072214;28;20107;-84
2022/02/28 09:36:43;;;;;;;13.13;6.75;;;;;;;11.83;35.43;103080.31;5053947;28;20116;-79
2022/02/28 09:39:08;;;;;;;9.30;6.15;;;;;;;11.71;35.07;103075.72;5054091;28;20488;-82
2022/02/28 09:41:35;;;;;;;9.88;6.32;;;;;;;12.33;35.13;103076.38;5073108;28;20073;-83
2022/02/28 09:44:01;;;;;;;9.48;6.13;;;;;;;13.26;33.42;103075.78;5072894;28;20040;-78
2022/02/28 09:46:28;;;;;;;11.27;6.45;;;;;;;13.17;32.99;103079.06;5054482;28;20025;-81
2022/02/28 09:48:54;;;;;;;13.02;6.57;;;;;;;13.03;32.13;103096.88;5071947;28;20037;-81
2022/02/28 09:51:20;;;;;;;10.52;6.25;;;;;;;13.12;33.00;103091.84;5071847;28;20380;-81
2022/02/28 09:53:46;;;;;;;11.05;6.15;;;;;;;13.66;32.24;103086.50;5071670;28;20038;-81
2022/02/28 09:56:11;;;;;;;13.95;6.10;;;;;;;12.65;33.23;103089.50;5071647;28;20373;-78
2022/02/28 09:58:37;;;;;;;13.82;7.00;;;;;;;12.88;34.08;103092.50;5053642;28;20059;-78
2022/02/28 10:01:02;;;;;;;7.47;5.75;;;;;;;13.40;31.71;103099.81;5071517;28;20077;-79
2022/02/28 10:03:29;;;;;;;10.90;6.03;;;;;;;12.83;32.56;103100.81;5071656;28;20457;-80
2022/02/28 10:06:01;;;;;;;9.65;6.10;;;;;;;13.77;32.11;103111.66;5071673;28;20062;-79
2022/02/28 10:08:38;;;;;;;17.15;7.03;;;;;;;14.47;30.65;103108.56;5071529;28;20033;-80
2022/02/28 10:11:05;;;;;;;7.80;5.80;;;;;;;13.87;31.09;103105.56;5071807;28;20430;-81
2022/02/28 10:13:31;;;;;;;9.85;6.47;;;;;;;14.23;30.56;103103.13;5053132;28;20029;-80
2022/02/28 10:15:57;;;;;;;14.57;6.45;;;;;;;14.73;30.32;103106.69;5071758;28;20029;-81
2022/02/28 10:18:28;;;;;;;8.82;6.03;;;;;;;14.60;29.94;103109.38;5071695;28;20029;-81
2022/02/28 10:20:53;;;;;;;9.23;6.15;;;;;;;14.19;30.79;103107.81;5071268;28;20045;-83
2022/02/28 10:23:23;;;;;;;10.25;6.28;;;;;;;15.05;29.51;103111.53;5053678;28;20039;-81
2022/02/28 10:25:51;;;;;;;11.82;6.38;;;;;;;15.37;29.83;103110.94;5071788;28;20136;-81
2022/02/28 10:28:25;;;;;;;8.82;6.45;;;;;;;15.93;28.46;103121.06;5071254;28;20102;-80
2022/02/28 10:30:52;;;;;;;11.15;6.60;;;;;;;14.37;30.19;103124.41;5071386;28;20062;-82
2022/02/28 10:33:18;;;;;;;9.45;6.45;;;;;;;14.87;29.61;103115.56;5071009;28;20116;-80
2022/02/28 10:36:00;;;;;;;12.80;6.15;;;;;;;14.62;30.44;103112.84;5071115;28;20135;-81
2022/02/28 10:38:30;;;;;;;12.30;6.57;;;;;;;15.46;29.49;103109.41;5071213;28;20119;-78
2022/02/28 10:40:55;;;;;;;11.40;6.40;;;;;;;15.42;29.04;103107.91;5071330;28;20025;-79
2022/02/28 10:43:33;;;;;;;8.65;6.68;;;;;;;15.45;28.35;103105.00;5071086;28;20028;-82
2022/02/28 10:45:58;;;;;;;7.53;5.60;;;;;;;15.35;28.52;103112.91;5071794;28;20367;-81
2022/02/28 10:48:25;;;;;;;10.57;6.47;;;;;;;14.99;28.82;103101.28;5071073;28;20123;-78
2022/02/28 10:50:51;;;;;;;12.00;6.30;;;;;;;15.02;29.83;103093.00;5053577;28;20046;-78
2022/02/28 10:53:19;;;;;;;10.70;6.18;;;;;;;15.49;29.83;103095.75;5071215;28;20448;-79
2022/02/28 10:55:47;;;;;;;8.90;5.88;;;;;;;16.04;28.33;103099.56;5070594;28;20025;-78
2022/02/28 10:58:33;;;;;;;9.68;6.32;;;;;;;15.60;28.73;103085.06;5070880;28;20033;-79
2022/02/28 11:01:05;;;;;;;9.27;5.93;;;;;;;14.92;30.01;103087.44;5070283;28;20039;-79
2022/02/28 11:03:44;;;;;;;13.52;6.20;;;;;;;14.09;30.75;103090.69;5071355;28;20100;-80
2022/02/28 11:06:11;;;;;;;10.15;5.97;;;;;;;13.82;31.48;103090.78;5070393;28;20094;-80
2022/02/28 11:08:42;;;;;;;14.50;6.80;;;;;;;13.70;30.69;103101.38;5070594;28;20159;-81
2022/02/28 11:11:10;;;;;;;11.80;6.53;;;;;;;13.58;32.01;103102.19;5071240;28;20432;-79
2022/02/28 11:13:35;;;;;;;9.02;6.18;;;;;;;12.85;34.75;103093.56;5070226;28;20117;-83
2022/02/28 11:16:01;;;;;;;11.27;6.22;;;;;;;12.22;34.30;103099.34;5071038;28;20390;-79